createdAt,value
2022-11-12T00:02:16.269Z,10.57
2022-11-12T00:05:08.316Z,8.98
2022-11-12T00:07:59.850Z,7.97
2022-11-12T00:10:50.459Z,13.23
2022-11-12T00:13:42.270Z,7.63
2022-11-12T00:16:33.247Z,5.63
2022-11-12T00:19:24.235Z,6.80
2022-11-12T00:22:15.924Z,8.75
2022-11-12T00:25:07.787Z,6.45
2022-11-12T00:28:04.425Z,6.82
2022-11-12T00:30:55.117Z,6.67
2022-11-12T00:33:46.532Z,6.00
2022-11-12T00:36:36.950Z,7.18
2022-11-12T00:39:29.477Z,7.75
2022-11-12T00:42:20.129Z,8.75
2022-11-12T00:45:11.633Z,6.50
2022-11-12T00:48:02.409Z,7.05
2022-11-12T00:51:09.761Z,5.78
2022-11-12T00:54:00.971Z,9.95
2022-11-12T00:56:52.719Z,6.47
2022-11-12T00:59:43.268Z,8.07
2022-11-12T01:02:42.211Z,5.93
2022-11-12T01:05:34.711Z,5.95
2022-11-12T01:08:26.261Z,7.60
2022-11-12T01:11:29.691Z,6.47
2022-11-12T01:14:21.489Z,6.67
2022-11-12T01:17:12.001Z,7.35
2022-11-12T01:20:03.345Z,7.03
2022-11-12T01:22:53.716Z,11.52
2022-11-12T01:25:45.068Z,13.15
2022-11-12T01:28:36.096Z,12.10
2022-11-12T01:31:34.070Z,14.60
2022-11-12T01:34:25.727Z,12.80
2022-11-12T01:37:16.806Z,11.73
2022-11-12T01:40:08.334Z,10.93
2022-11-12T01:43:00.419Z,11.87
2022-11-12T01:45:52.778Z,16.23
2022-11-12T01:48:56.672Z,20.02
2022-11-12T01:51:50.965Z,19.48
2022-11-12T01:54:43.342Z,19.02
2022-11-12T01:58:01.084Z,18.80
2022-11-12T02:00:52.799Z,19.90
2022-11-12T02:03:44.504Z,20.67
2022-11-12T02:06:36.771Z,23.23
2022-11-12T02:09:28.627Z,20.08
2022-11-12T02:12:38.110Z,26.20
2022-11-12T02:15:30.187Z,22.38
2022-11-12T02:18:20.467Z,62.35
2022-11-12T02:21:12.212Z,57.30
2022-11-12T02:24:11.818Z,40.08
2022-11-12T02:27:05.497Z,63.73
2022-11-12T02:29:56.242Z,39.63
2022-11-12T02:32:47.792Z,25.17
2022-11-12T02:35:38.201Z,17.75
2022-11-12T02:38:29.852Z,18.58
2022-11-12T02:41:20.999Z,17.27
2022-11-12T02:44:12.638Z,16.92
2022-11-12T02:47:03.674Z,20.90
2022-11-12T02:49:55.535Z,17.95
2022-11-12T02:52:46.797Z,19.45
2022-11-12T02:55:39.334Z,17.33
2022-11-12T02:58:30.572Z,18.33
2022-11-12T03:01:22.159Z,13.00
2022-11-12T03:04:13.170Z,12.77
2022-11-12T03:07:03.922Z,8.73
2022-11-12T03:09:56.318Z,10.33
2022-11-12T03:12:47.394Z,8.30
2022-11-12T03:15:38.453Z,8.55
2022-11-12T03:18:30.557Z,8.45
2022-11-12T03:21:21.144Z,10.05
2022-11-12T03:24:13.274Z,10.57
2022-11-12T03:27:04.613Z,22.23
2022-11-12T03:29:55.501Z,13.32
2022-11-12T03:32:46.397Z,10.30
2022-11-12T03:35:37.775Z,13.10
2022-11-12T03:38:29.000Z,10.57
2022-11-12T03:41:21.207Z,8.55
2022-11-12T03:44:11.621Z,9.45
2022-11-12T03:47:02.776Z,9.23
2022-11-12T03:49:53.501Z,7.47
2022-11-12T03:52:50.874Z,8.13
2022-11-12T03:55:42.351Z,7.45
2022-11-12T03:58:32.621Z,8.93
2022-11-12T04:01:24.535Z,7.18
2022-11-12T04:04:14.911Z,9.45
2022-11-12T04:07:24.648Z,7.90
2022-11-12T04:10:16.073Z,10.57
2022-11-12T04:13:25.325Z,7.22
2022-11-12T04:16:52.464Z,19.98
2022-11-12T04:20:01.764Z,9.32
2022-11-12T04:22:52.302Z,7.43
2022-11-12T04:26:02.898Z,11.45
2022-11-12T04:29:12.251Z,58.40
2022-11-12T04:32:03.591Z,44.05
2022-11-12T04:34:54.469Z,147.68
2022-11-12T04:41:15.747Z,10.57
2022-11-12T04:44:26.749Z,8.35
2022-11-12T04:47:17.865Z,5.93
2022-11-12T04:50:17.716Z,6.60
2022-11-12T04:53:09.137Z,5.77
2022-11-12T04:56:00.599Z,6.30
2022-11-12T04:58:51.206Z,6.35
2022-11-12T05:01:42.926Z,6.55
2022-11-12T05:04:33.818Z,6.90
2022-11-12T05:07:24.503Z,9.27
2022-11-12T05:10:17.143Z,8.45
2022-11-12T05:13:08.281Z,9.80
2022-11-12T05:15:59.000Z,7.50
2022-11-12T05:18:50.633Z,9.02
2022-11-12T05:22:00.340Z,8.87
2022-11-12T05:24:53.245Z,11.18
2022-11-12T05:27:44.381Z,10.23
2022-11-12T05:30:36.003Z,13.20
2022-11-12T05:33:26.537Z,10.13
2022-11-12T05:36:18.019Z,7.53
2022-11-12T05:39:08.755Z,6.32
2022-11-12T05:42:15.579Z,5.85
2022-11-12T05:45:08.197Z,5.93
2022-11-12T05:47:59.343Z,6.88
2022-11-12T05:51:12.073Z,5.83
2022-11-12T05:54:03.518Z,8.90
2022-11-12T05:56:54.426Z,5.80
2022-11-12T05:59:45.791Z,6.78
2022-11-12T06:02:36.982Z,9.30
2022-11-12T06:05:27.897Z,7.40
2022-11-12T06:08:19.600Z,5.50
2022-11-12T06:11:10.354Z,7.50
2022-11-12T06:14:02.576Z,6.88
2022-11-12T06:16:56.694Z,8.25
2022-11-12T06:19:47.732Z,6.43
2022-11-12T06:22:39.658Z,6.85
2022-11-12T06:25:30.764Z,8.48
2022-11-12T06:28:21.445Z,8.88
2022-11-12T06:31:13.882Z,7.82
2022-11-12T06:34:05.162Z,7.77
2022-11-12T06:36:56.066Z,5.97
2022-11-12T06:39:47.481Z,5.97
2022-11-12T06:42:38.598Z,5.38
2022-11-12T06:45:29.475Z,9.18
2022-11-12T06:48:20.945Z,6.00
2022-11-12T06:51:20.824Z,5.93
2022-11-12T06:54:11.512Z,7.82
2022-11-12T06:57:03.080Z,7.00
2022-11-12T06:59:55.752Z,10.02
2022-11-12T07:02:47.003Z,11.33
2022-11-12T07:05:39.248Z,6.97
2022-11-12T07:08:30.112Z,6.22
2022-11-12T07:11:21.319Z,6.95
2022-11-12T07:14:13.141Z,7.85
2022-11-12T07:17:04.758Z,17.33
2022-11-12T07:20:00.743Z,39.13
2022-11-12T07:23:01.774Z,14.88
2022-11-12T07:26:01.900Z,19.60
2022-11-12T07:28:56.895Z,35.80
2022-11-12T07:31:47.524Z,31.77
2022-11-12T07:34:39.318Z,55.60
2022-11-12T07:37:29.863Z,32.17
2022-11-12T07:40:21.912Z,42.55
2022-11-12T07:43:12.658Z,23.08
2022-11-12T07:46:11.810Z,39.10
2022-11-12T07:49:03.466Z,22.77
2022-11-12T07:51:54.564Z,28.48
2022-11-12T07:54:45.230Z,29.60
2022-11-12T07:57:37.112Z,35.03
2022-11-12T08:00:28.213Z,22.83
2022-11-12T08:03:20.336Z,16.65
2022-11-12T08:06:11.004Z,14.38
2022-11-12T08:09:05.918Z,20.55
2022-11-12T08:11:56.578Z,13.15
2022-11-12T08:14:47.695Z,32.53
2022-11-12T08:17:41.114Z,21.08
2022-11-12T08:20:32.680Z,23.25
2022-11-12T08:23:24.001Z,24.13
2022-11-12T08:26:18.531Z,30.50
2022-11-12T08:29:09.578Z,24.03
2022-11-12T08:32:01.294Z,25.98
2022-11-12T08:34:52.400Z,19.27
2022-11-12T08:37:42.967Z,16.60
2022-11-12T08:40:35.030Z,14.75
2022-11-12T08:43:26.005Z,19.00
2022-11-12T08:46:17.255Z,17.98
2022-11-12T08:49:07.883Z,13.50
2022-11-12T08:51:59.530Z,12.70
2022-11-12T08:54:50.155Z,15.95
2022-11-12T08:57:43.732Z,15.80
2022-11-12T09:00:39.558Z,13.40
2022-11-12T09:03:30.387Z,15.57
2022-11-12T09:06:21.763Z,25.73
2022-11-12T09:09:12.359Z,19.52
2022-11-12T09:12:12.411Z,43.30
2022-11-12T09:15:36.138Z,22.08
2022-11-12T09:18:18.676Z,27.20
2022-11-12T09:21:13.008Z,24.35
2022-11-12T09:24:04.159Z,27.85
2022-11-12T09:26:54.444Z,21.87
2022-11-12T09:29:45.468Z,20.80
2022-11-12T09:32:36.015Z,18.05
2022-11-12T09:35:27.559Z,21.05
2022-11-12T09:38:19.602Z,19.02
2022-11-12T09:41:21.003Z,18.07
2022-11-12T09:44:18.777Z,20.08
2022-11-12T09:47:45.880Z,21.80
2022-11-12T09:50:55.323Z,17.92
2022-11-12T09:53:56.374Z,19.38
2022-11-12T09:56:51.841Z,17.03
2022-11-12T09:59:46.405Z,18.70
2022-11-12T10:02:55.738Z,18.30
2022-11-12T10:05:59.238Z,22.30
2022-11-12T10:09:05.185Z,19.70
2022-11-12T10:12:32.723Z,19.43
2022-11-12T10:16:11.054Z,24.45
2022-11-12T10:19:32.670Z,24.27
2022-11-12T10:22:53.620Z,24.02
2022-11-12T10:25:47.583Z,23.60
2022-11-12T10:29:13.295Z,23.35
2022-11-12T10:32:03.900Z,23.23
2022-11-12T10:34:55.307Z,28.10
2022-11-12T10:38:13.316Z,22.38
2022-11-12T10:41:23.232Z,21.92
2022-11-12T10:44:17.166Z,21.42
2022-11-12T10:47:29.318Z,15.80
2022-11-12T10:50:43.232Z,22.15
2022-11-12T10:53:40.841Z,18.75
2022-11-12T10:56:32.471Z,22.83
2022-11-12T10:59:25.843Z,23.10
2022-11-12T11:02:19.492Z,23.70
2022-11-12T11:05:31.186Z,24.90
2022-11-12T11:08:47.254Z,26.15
2022-11-12T11:11:48.935Z,24.52
2022-11-12T11:14:40.578Z,21.00
2022-11-12T11:17:31.769Z,22.30
2022-11-12T11:20:44.664Z,24.80
2022-11-12T11:23:52.063Z,24.90
2022-11-12T11:26:54.986Z,26.70
2022-11-12T11:30:16.990Z,25.80
2022-11-12T11:33:59.506Z,20.52
2022-11-12T11:37:29.806Z,20.95
2022-11-12T11:40:43.593Z,21.73
2022-11-12T11:43:56.712Z,19.60
2022-11-12T11:46:58.837Z,19.05
2022-11-12T11:50:14.908Z,18.63
2022-11-12T11:53:30.067Z,23.45
2022-11-12T11:56:26.490Z,21.80
2022-11-12T11:59:44.125Z,20.42
2022-11-12T12:03:23.172Z,26.67
2022-11-12T12:06:27.331Z,26.83
2022-11-12T12:09:47.800Z,24.23
2022-11-12T12:12:50.954Z,23.23
2022-11-12T12:16:20.865Z,24.80
2022-11-12T12:19:47.723Z,23.08
2022-11-12T12:22:40.685Z,25.30
2022-11-12T12:25:41.520Z,26.75
2022-11-12T12:28:53.223Z,31.35
2022-11-12T12:31:52.447Z,34.25
2022-11-12T12:35:09.934Z,32.75
2022-11-12T12:38:12.039Z,32.20
2022-11-12T12:41:40.160Z,31.88
2022-11-12T12:45:04.941Z,33.53
2022-11-12T12:47:58.195Z,33.28
2022-11-12T12:50:51.964Z,31.88
2022-11-12T12:53:43.492Z,27.77
2022-11-12T12:56:35.034Z,30.83
2022-11-12T12:59:26.229Z,34.05
2022-11-12T13:02:23.537Z,33.38
2022-11-12T13:05:30.488Z,34.90
2022-11-12T13:08:26.727Z,33.83
2022-11-12T13:12:01.514Z,29.38
2022-11-12T13:15:12.484Z,28.92
2022-11-12T13:18:02.839Z,31.42
2022-11-12T13:21:16.611Z,32.15
2022-11-12T13:24:12.841Z,30.58
2022-11-12T13:27:04.352Z,32.30
2022-11-12T13:29:55.783Z,35.42
2022-11-12T13:32:46.942Z,29.70
2022-11-12T13:35:41.422Z,30.67
2022-11-12T13:38:38.377Z,32.28
2022-11-12T13:41:49.578Z,35.22
2022-11-12T13:44:41.412Z,31.48
2022-11-12T13:47:32.798Z,28.48
2022-11-12T13:50:25.442Z,29.27
2022-11-12T13:53:24.584Z,29.48
2022-11-12T13:56:34.568Z,30.15
2022-11-12T13:59:26.838Z,31.70
2022-11-12T14:02:27.289Z,30.63
2022-11-12T14:05:23.387Z,31.95
2022-11-12T14:08:53.628Z,33.90
2022-11-12T14:12:02.040Z,34.17
2022-11-12T14:15:10.459Z,31.48
2022-11-12T14:18:13.353Z,32.35
2022-11-12T14:21:12.048Z,33.55
2022-11-12T14:24:04.553Z,31.00
2022-11-12T14:26:56.260Z,33.13
2022-11-12T14:29:48.301Z,30.13
2022-11-12T14:32:43.077Z,32.67
2022-11-12T14:35:37.940Z,35.30
2022-11-12T14:38:50.076Z,36.92
2022-11-12T14:41:43.536Z,34.30
2022-11-12T14:44:37.503Z,35.72
2022-11-12T14:47:29.085Z,39.28
2022-11-12T14:50:40.740Z,37.88
2022-11-12T14:53:42.734Z,37.13
2022-11-12T14:56:51.750Z,35.25
2022-11-12T14:59:43.402Z,39.78
2022-11-12T15:02:55.278Z,37.05
2022-11-12T15:06:10.048Z,39.13
2022-11-12T15:09:00.640Z,39.30
2022-11-12T15:11:52.660Z,39.25
2022-11-12T15:14:44.079Z,35.95
2022-11-12T15:17:37.001Z,40.38
2022-11-12T15:20:28.663Z,36.70
2022-11-12T15:23:20.212Z,42.25
2022-11-12T15:26:24.302Z,43.72
2022-11-12T15:29:34.150Z,44.55
2022-11-12T15:32:25.985Z,45.03
2022-11-12T15:35:25.569Z,37.77
2022-11-12T15:38:28.708Z,40.78
2022-11-12T15:41:27.689Z,44.33
2022-11-12T15:44:19.053Z,50.75
2022-11-12T15:47:21.535Z,41.05
2022-11-12T15:50:18.651Z,46.10
2022-11-12T15:53:10.328Z,47.88
2022-11-12T15:56:03.684Z,123.80
2022-11-12T15:58:54.156Z,93.72
2022-11-12T16:01:45.328Z,64.60
2022-11-12T16:04:36.444Z,93.07
2022-11-12T16:07:28.178Z,52.75
2022-11-12T16:10:20.698Z,41.42
2022-11-12T16:13:29.552Z,39.90
2022-11-12T16:16:21.122Z,54.58
2022-11-12T16:19:16.626Z,46.33
2022-11-12T16:22:12.497Z,42.95
2022-11-12T16:25:03.457Z,42.58
2022-11-12T16:27:55.997Z,43.35
2022-11-12T16:30:48.484Z,33.90
2022-11-12T16:33:39.698Z,34.87
2022-11-12T16:36:30.622Z,39.92
2022-11-12T16:39:21.457Z,39.38
2022-11-12T16:42:12.359Z,40.08
2022-11-12T16:45:02.936Z,39.25
2022-11-12T16:47:56.212Z,40.47
2022-11-12T16:50:48.074Z,41.50
2022-11-12T16:53:39.073Z,42.08
2022-11-12T16:56:29.893Z,40.90
2022-11-12T16:59:21.703Z,42.08
2022-11-12T17:02:17.700Z,49.47
2022-11-12T17:05:20.728Z,45.92
2022-11-12T17:08:11.941Z,49.63
2022-11-12T17:14:27.032Z,43.17
2022-11-12T17:17:19.838Z,48.13
2022-11-12T17:20:11.355Z,45.15
2022-11-12T17:23:02.124Z,51.92
2022-11-12T17:26:02.169Z,46.83
2022-11-12T17:28:59.329Z,56.20
2022-11-12T17:31:52.442Z,64.50
2022-11-12T17:34:43.723Z,82.30
2022-11-12T17:37:35.289Z,58.08
2022-11-12T17:40:25.848Z,54.33
2022-11-12T17:43:17.031Z,55.45
2022-11-12T17:46:09.919Z,56.43
2022-11-12T17:49:00.784Z,52.67
2022-11-12T17:51:51.917Z,61.47
2022-11-12T17:54:42.562Z,77.57
2022-11-12T17:57:33.569Z,65.35
2022-11-12T18:00:24.116Z,67.77
2022-11-12T18:03:15.973Z,60.72
2022-11-12T18:06:12.253Z,76.80
2022-11-12T18:09:12.826Z,66.18
2022-11-12T18:12:03.732Z,56.35
2022-11-12T18:14:55.117Z,46.40
2022-11-12T18:17:46.205Z,55.55
2022-11-12T18:20:38.060Z,47.95
2022-11-12T18:23:28.563Z,61.03
2022-11-12T18:26:21.369Z,63.25
2022-11-12T18:29:13.233Z,51.08
2022-11-12T18:32:04.039Z,78.97
2022-11-12T18:34:54.380Z,66.93
2022-11-12T18:37:46.886Z,48.13
2022-11-12T18:40:38.342Z,53.50
2022-11-12T18:43:29.828Z,46.87
2022-11-12T18:46:21.061Z,47.50
2022-11-12T18:49:11.486Z,47.67
2022-11-12T18:52:02.835Z,47.20
2022-11-12T18:54:53.504Z,48.75
2022-11-12T18:57:45.541Z,64.35
2022-11-12T19:00:38.404Z,46.17
2022-11-12T19:03:29.971Z,49.05
2022-11-12T19:06:21.431Z,39.53
2022-11-12T19:09:14.384Z,57.47
2022-11-12T19:12:05.312Z,40.47
2022-11-12T19:14:56.716Z,39.85
2022-11-12T19:17:48.799Z,35.20
2022-11-12T19:20:40.354Z,70.97
2022-11-12T19:23:31.682Z,54.47
2022-11-12T19:26:24.267Z,61.63
2022-11-12T19:29:15.444Z,66.38
2022-11-12T19:32:07.914Z,41.65
2022-11-12T19:34:58.544Z,46.28
2022-11-12T19:37:49.922Z,47.33
2022-11-12T19:40:40.987Z,45.57
2022-11-12T19:43:32.457Z,37.03
2022-11-12T19:46:22.982Z,42.67
2022-11-12T19:49:14.627Z,43.83
2022-11-12T19:52:05.208Z,39.42
2022-11-12T19:54:56.402Z,37.77
2022-11-12T19:57:47.193Z,36.45
2022-11-12T20:00:38.620Z,32.33
2022-11-12T20:03:30.474Z,50.35
2022-11-12T20:06:25.888Z,46.13
2022-11-12T20:09:16.714Z,59.10
2022-11-12T20:12:08.476Z,49.35
2022-11-12T20:14:59.086Z,35.45
2022-11-12T20:17:49.648Z,53.53
2022-11-12T20:20:40.795Z,51.03
2022-11-12T20:23:33.742Z,55.87
2022-11-12T20:26:25.574Z,41.42
2022-11-12T20:29:16.137Z,37.65
2022-11-12T20:32:07.595Z,33.47
2022-11-12T20:34:58.148Z,33.55
2022-11-12T20:37:50.058Z,38.70
2022-11-12T20:40:41.772Z,37.40
2022-11-12T20:43:33.998Z,36.53
2022-11-12T20:46:27.126Z,47.60
2022-11-12T20:49:18.557Z,48.00
2022-11-12T20:52:09.635Z,53.10
2022-11-12T20:55:00.707Z,46.17
2022-11-12T20:57:51.856Z,58.85
2022-11-12T21:00:43.107Z,63.50
2022-11-12T21:03:36.101Z,93.03
2022-11-12T21:06:28.982Z,58.10
2022-11-12T21:09:20.100Z,69.55
2022-11-12T21:12:11.758Z,58.83
2022-11-12T21:15:03.366Z,66.90
2022-11-12T21:17:54.522Z,65.75
2022-11-12T21:20:46.969Z,53.63
2022-11-12T21:23:41.413Z,57.65
2022-11-12T21:26:32.729Z,44.10
2022-11-12T21:29:23.694Z,56.15
2022-11-12T21:32:14.352Z,38.85
2022-11-12T21:35:06.579Z,40.53
2022-11-12T21:37:57.719Z,47.85
2022-11-12T21:40:48.815Z,40.65
2022-11-12T21:43:43.696Z,36.08
2022-11-12T21:46:37.655Z,33.30
2022-11-12T21:49:28.167Z,40.97
2022-11-12T21:52:19.716Z,65.85
2022-11-12T21:55:10.783Z,38.75
2022-11-12T21:58:01.560Z,33.22
2022-11-12T22:00:52.164Z,31.20
2022-11-12T22:03:45.121Z,65.47
2022-11-12T22:06:38.537Z,36.33
2022-11-12T22:09:29.061Z,22.60
2022-11-12T22:12:20.776Z,29.40
2022-11-12T22:15:11.773Z,30.27
2022-11-12T22:18:03.741Z,22.67
2022-11-12T22:21:06.530Z,22.92
2022-11-12T22:23:59.289Z,26.98
2022-11-12T22:26:49.761Z,45.50
2022-11-12T22:29:41.268Z,27.08
2022-11-12T22:32:31.926Z,23.93
2022-11-12T22:35:22.961Z,21.98
2022-11-12T22:38:13.930Z,39.17
2022-11-12T22:41:08.190Z,26.30
2022-11-12T22:44:01.512Z,20.67
2022-11-12T22:46:52.644Z,27.90
2022-11-12T22:49:43.115Z,21.55
2022-11-12T22:52:34.656Z,32.17
2022-11-12T22:55:25.183Z,36.03
2022-11-12T22:58:17.066Z,31.40
2022-11-12T23:01:20.956Z,22.20
2022-11-12T23:04:12.356Z,27.48
2022-11-12T23:07:03.646Z,36.72
2022-11-12T23:09:54.871Z,23.63
2022-11-12T23:12:46.372Z,22.45
2022-11-12T23:15:36.997Z,36.90
2022-11-12T23:18:29.518Z,28.08
2022-11-12T23:21:27.496Z,41.50
2022-11-12T23:24:19.293Z,26.95
2022-11-12T23:27:10.406Z,39.10
2022-11-12T23:30:01.473Z,30.63
2022-11-12T23:32:52.913Z,24.10
2022-11-12T23:35:43.553Z,34.63
2022-11-12T23:38:35.552Z,39.55
2022-11-12T23:41:27.411Z,21.88
2022-11-12T23:44:19.593Z,22.23
2022-11-12T23:47:10.588Z,19.42
2022-11-12T23:50:01.591Z,19.75
2022-11-12T23:52:52.609Z,33.63
2022-11-12T23:55:45.254Z,26.10
2022-11-12T23:58:38.638Z,37.03
